createdAt,value
2019-06-07T00:01:20.961Z,8.60
2019-06-07T00:04:10.333Z,8.60
2019-06-07T00:06:58.198Z,8.60
2019-06-07T00:09:46.096Z,8.40
2019-06-07T00:12:33.955Z,8.50
2019-06-07T00:15:28.406Z,8.50
2019-06-07T00:18:14.369Z,8.40
2019-06-07T00:21:00.580Z,8.60
2019-06-07T00:23:48.862Z,8.50
2019-06-07T00:26:55.135Z,8.40
2019-06-07T00:29:26.008Z,8.30
2019-06-07T00:32:14.987Z,8.10
2019-06-07T00:35:03.400Z,8.00
2019-06-07T00:37:51.468Z,8.10
2019-06-07T00:40:39.109Z,7.90
2019-06-07T00:43:28.672Z,8.00
2019-06-07T00:46:18.822Z,8.00
2019-06-07T00:49:06.208Z,7.90
2019-06-07T00:51:54.312Z,7.90
2019-06-07T00:54:41.743Z,7.90
2019-06-07T00:57:30.145Z,8.00
2019-06-07T01:00:22.292Z,8.00
2019-06-07T01:03:07.665Z,8.10
2019-06-07T01:05:55.745Z,8.10
2019-06-07T01:08:43.664Z,8.10
2019-06-07T01:14:05.766Z,8.20
2019-06-07T01:17:01.220Z,8.30
2019-06-07T01:19:42.764Z,8.30
2019-06-07T01:22:30.627Z,8.20
2019-06-07T01:25:22.177Z,8.20
2019-06-07T01:28:08.017Z,8.30
2019-06-07T01:30:55.929Z,8.10
2019-06-07T01:33:50.980Z,8.00
2019-06-07T01:36:33.872Z,8.00
2019-06-07T01:39:24.071Z,7.90
2019-06-07T01:42:10.543Z,7.80
2019-06-07T01:44:58.190Z,7.90
2019-06-07T01:47:46.092Z,8.00
2019-06-07T01:50:34.119Z,7.90
2019-06-07T01:53:24.270Z,7.70
2019-06-07T01:56:11.796Z,7.70
2019-06-07T01:58:59.741Z,7.60
2019-06-07T02:01:47.563Z,7.60
2019-06-07T02:04:34.903Z,7.60
2019-06-07T02:07:26.889Z,7.50
2019-06-07T02:10:12.320Z,7.60
2019-06-07T02:13:00.135Z,7.50
2019-06-07T02:15:48.104Z,7.40
2019-06-07T02:18:35.459Z,7.40
2019-06-07T02:21:24.703Z,7.40
2019-06-07T02:24:12.525Z,7.40
2019-06-07T02:27:00.439Z,7.30
2019-06-07T02:29:48.699Z,7.30
2019-06-07T02:32:37.265Z,7.30
2019-06-07T02:35:27.128Z,7.20
2019-06-07T02:38:14.236Z,7.20
2019-06-07T02:41:01.819Z,7.20
2019-06-07T02:43:49.565Z,7.20
2019-06-07T02:46:46.784Z,7.20
2019-06-07T02:49:31.373Z,7.20
2019-06-07T02:52:16.365Z,7.30
2019-06-07T02:55:04.713Z,7.20
2019-06-07T02:57:52.429Z,7.40
2019-06-07T03:01:05.630Z,7.30
2019-06-07T03:03:39.362Z,7.40
2019-06-07T03:06:29.848Z,7.30
2019-06-07T03:09:18.366Z,7.50
2019-06-07T03:12:06.304Z,7.60
2019-06-07T03:14:54.607Z,7.70
2019-06-07T03:18:02.460Z,7.80
2019-06-07T03:21:05.013Z,7.90
2019-06-07T03:23:41.623Z,7.90
2019-06-07T03:26:34.603Z,7.90
2019-06-07T03:29:18.855Z,8.00
2019-06-07T03:32:06.676Z,8.10
2019-06-07T03:34:54.641Z,8.20
2019-06-07T03:37:42.993Z,8.40
2019-06-07T03:40:31.685Z,8.40
2019-06-07T03:43:20.615Z,8.50
2019-06-07T03:46:08.309Z,8.50
2019-06-07T03:48:56.228Z,8.60
2019-06-07T03:51:44.330Z,8.50
2019-06-07T03:54:36.932Z,8.50
2019-06-07T03:57:22.467Z,8.40
2019-06-07T04:00:10.345Z,8.50
2019-06-07T04:02:58.433Z,8.50
2019-06-07T04:05:46.178Z,8.60
2019-06-07T04:08:38.289Z,8.60
2019-06-07T04:11:23.774Z,8.50
2019-06-07T04:14:11.982Z,8.40
2019-06-07T04:16:59.640Z,8.50
2019-06-07T04:19:47.078Z,8.40
2019-06-07T04:22:38.796Z,8.40
2019-06-07T04:25:24.646Z,8.50
2019-06-07T04:28:12.450Z,8.60
2019-06-07T04:31:00.406Z,8.50
2019-06-07T04:33:47.827Z,8.50
2019-06-07T04:36:48.489Z,8.50
2019-06-07T04:39:25.828Z,8.40
2019-06-07T04:42:15.291Z,8.40
2019-06-07T04:45:04.309Z,8.40
2019-06-07T04:47:53.928Z,8.50
2019-06-07T04:51:02.012Z,8.50
2019-06-07T04:54:03.139Z,8.60
2019-06-07T04:56:54.875Z,8.70
2019-06-07T05:02:40.919Z,8.80
2019-06-07T05:05:31.798Z,8.90
2019-06-07T05:08:28.201Z,9.00
2019-06-07T05:11:09.420Z,9.00
2019-06-07T05:13:57.084Z,9.20
2019-06-07T05:19:23.358Z,9.20
2019-06-07T05:22:12.475Z,9.40
2019-06-07T05:25:00.130Z,9.50
2019-06-07T05:27:47.933Z,9.60
2019-06-07T05:33:27.212Z,9.80
2019-06-07T05:36:14.809Z,9.90
2019-06-07T05:39:02.883Z,10.00
2019-06-07T05:41:51.001Z,10.10
2019-06-07T05:44:43.485Z,10.20
2019-06-07T05:47:28.438Z,10.40
2019-06-07T05:50:38.481Z,10.50
2019-06-07T05:53:06.735Z,10.60
2019-06-07T05:55:54.402Z,10.70
2019-06-07T05:58:44.545Z,10.80
2019-06-07T06:01:58.922Z,11.00
2019-06-07T06:04:21.070Z,11.20
2019-06-07T06:07:09.131Z,11.30
2019-06-07T06:09:57.573Z,11.40
2019-06-07T06:12:51.471Z,11.60
2019-06-07T06:15:45.372Z,11.80
2019-06-07T06:18:23.912Z,11.90
2019-06-07T06:21:19.323Z,12.20
2019-06-07T06:24:00.792Z,12.40
2019-06-07T06:26:54.343Z,12.50
2019-06-07T06:29:38.720Z,12.70
2019-06-07T06:32:41.848Z,12.90
2019-06-07T06:35:17.255Z,13.00
2019-06-07T06:38:05.486Z,13.10
2019-06-07T06:41:12.137Z,13.30
2019-06-07T06:43:46.746Z,13.50
2019-06-07T06:46:38.710Z,13.60
2019-06-07T06:49:22.761Z,13.60
2019-06-07T06:52:10.853Z,13.80
2019-06-07T06:55:00.805Z,14.00
2019-06-07T06:57:51.175Z,14.10
2019-06-07T07:00:58.984Z,14.30
2019-06-07T07:03:57.335Z,14.50
2019-06-07T07:06:26.876Z,14.60
2019-06-07T07:09:14.846Z,14.80
2019-06-07T07:12:12.323Z,14.80
2019-06-07T07:14:55.829Z,15.10
2019-06-07T07:17:53.700Z,15.30
2019-06-07T07:20:31.566Z,15.40
2019-06-07T07:23:19.335Z,15.50
2019-06-07T07:26:07.959Z,15.70
2019-06-07T07:28:57.863Z,15.80
2019-06-07T07:31:52.094Z,16.00
2019-06-07T07:34:38.335Z,16.10
2019-06-07T07:37:39.387Z,16.20
2019-06-07T07:40:57.378Z,16.40
2019-06-07T07:43:26.015Z,16.60
2019-06-07T07:46:29.029Z,16.60
2019-06-07T07:49:14.705Z,16.80
2019-06-07T07:52:05.276Z,16.90
2019-06-07T07:54:56.645Z,17.20
2019-06-07T07:57:52.355Z,17.40
2019-06-07T08:01:07.893Z,17.60
2019-06-07T08:03:30.346Z,17.90
2019-06-07T08:06:32.434Z,18.10
2019-06-07T08:09:29.081Z,18.10
2019-06-07T08:12:23.153Z,18.40
2019-06-07T08:15:26.305Z,18.60
2019-06-07T08:18:25.334Z,18.70
2019-06-07T08:21:24.405Z,19.10
2019-06-07T08:24:13.287Z,19.30
2019-06-07T08:27:25.924Z,19.40
2019-06-07T08:30:35.446Z,19.80
2019-06-07T08:33:24.194Z,19.90
2019-06-07T08:38:52.315Z,20.90
2019-06-07T08:41:59.371Z,20.90
2019-06-07T08:44:39.863Z,21.50
2019-06-07T08:47:32.518Z,21.40
2019-06-07T08:50:20.931Z,21.30
2019-06-07T08:53:35.511Z,21.30
2019-06-07T08:56:44.211Z,21.90
2019-06-07T08:59:55.676Z,21.80
2019-06-07T09:03:04.440Z,22.20
2019-06-07T09:07:02.707Z,22.30
2019-06-07T09:10:03.476Z,22.60
2019-06-07T09:12:57.875Z,22.50
2019-06-07T09:15:50.000Z,23.30
2019-06-07T09:18:45.616Z,23.60
2019-06-07T09:22:04.693Z,23.80
2019-06-07T09:25:21.897Z,23.80
2019-06-07T09:28:39.499Z,23.90
2019-06-07T09:31:51.854Z,23.90
2019-06-07T09:34:32.978Z,24.30
2019-06-07T09:40:42.517Z,24.40
2019-06-07T09:44:09.958Z,24.80
2019-06-07T09:47:13.992Z,24.70
2019-06-07T09:49:53.319Z,25.30
2019-06-07T09:52:57.895Z,25.40
2019-06-07T09:55:35.119Z,25.50
2019-06-07T10:01:13.693Z,25.40
2019-06-07T10:04:04.590Z,25.90
2019-06-07T10:06:51.641Z,26.00
2019-06-07T10:10:11.661Z,26.10
2019-06-07T10:12:29.151Z,26.80
2019-06-07T10:15:17.248Z,26.50
2019-06-07T10:18:06.941Z,27.10
2019-06-07T10:20:55.470Z,26.70
2019-06-07T10:23:43.329Z,26.70
2019-06-07T10:26:30.786Z,26.80
2019-06-07T10:29:18.594Z,27.00
2019-06-07T10:32:06.892Z,26.70
2019-06-07T10:34:55.022Z,26.60
2019-06-07T10:37:42.369Z,26.40
2019-06-07T10:40:30.111Z,27.20
2019-06-07T10:43:18.026Z,27.20
2019-06-07T10:46:07.632Z,27.30
2019-06-07T10:48:56.385Z,27.30
2019-06-07T10:51:46.435Z,27.50
2019-06-07T10:54:34.198Z,28.00
2019-06-07T10:57:21.931Z,28.00
2019-06-07T11:00:11.525Z,28.00
2019-06-07T11:02:59.890Z,28.00
2019-06-07T11:05:48.010Z,28.00
2019-06-07T11:08:36.270Z,28.20
2019-06-07T11:11:24.038Z,28.00
2019-06-07T11:14:12.736Z,28.00
2019-06-07T11:17:09.427Z,28.40
2019-06-07T11:20:00.366Z,28.50
2019-06-07T11:22:52.013Z,28.70
2019-06-07T11:25:40.973Z,28.30
2019-06-07T11:28:30.405Z,28.50
2019-06-07T11:31:23.079Z,28.40
2019-06-07T11:34:14.669Z,29.00
2019-06-07T11:37:03.670Z,29.10
2019-06-07T11:39:53.963Z,29.20
2019-06-07T11:42:45.069Z,29.70
2019-06-07T11:45:33.251Z,29.60
2019-06-07T11:48:21.256Z,29.80
2019-06-07T11:51:10.670Z,29.80
2019-06-07T11:53:58.532Z,29.70
2019-06-07T11:56:46.379Z,30.00
2019-06-07T11:59:34.110Z,30.40
2019-06-07T12:02:22.428Z,30.50
2019-06-07T12:05:15.292Z,30.70
2019-06-07T12:08:01.468Z,31.30
2019-06-07T12:10:49.679Z,31.10
2019-06-07T12:13:37.636Z,30.90
2019-06-07T12:16:25.676Z,31.60
2019-06-07T12:19:13.897Z,32.30
2019-06-07T12:22:05.406Z,31.70
2019-06-07T12:29:50.315Z,31.30
2019-06-07T12:32:43.469Z,32.10
2019-06-07T12:36:01.424Z,32.90
2019-06-07T12:38:49.209Z,33.60
2019-06-07T12:42:05.691Z,33.80
2019-06-07T12:49:23.496Z,33.60
2019-06-07T13:00:02.970Z,34.30
2019-06-07T13:03:10.299Z,34.60
2019-06-07T13:06:04.490Z,34.80
2019-06-07T13:09:03.684Z,35.50
2019-06-07T13:12:08.950Z,35.80
2019-06-07T13:15:31.692Z,34.40
2019-06-07T13:26:36.728Z,35.70
2019-06-07T13:30:10.840Z,36.40
2019-06-07T13:37:16.902Z,35.80
2019-06-07T13:40:23.106Z,35.30
2019-06-07T13:43:10.379Z,35.40
2019-06-07T13:45:58.440Z,36.80
2019-06-07T13:48:46.314Z,36.00
2019-06-07T13:51:34.399Z,36.20
2019-06-07T13:54:24.820Z,36.30
2019-06-07T13:57:13.043Z,36.60
2019-06-07T14:00:09.881Z,36.20
2019-06-07T14:02:50.707Z,36.80
2019-06-07T14:05:39.046Z,37.80
2019-06-07T14:08:30.057Z,38.00
2019-06-07T14:11:31.617Z,37.90
2019-06-07T14:14:20.206Z,37.40
2019-06-07T14:17:08.495Z,38.50
2019-06-07T14:19:56.911Z,38.10
2019-06-07T14:22:54.351Z,37.70
2019-06-07T14:25:45.419Z,36.40
2019-06-07T14:28:34.254Z,36.60
2019-06-07T14:31:24.389Z,36.90
2019-06-07T14:34:26.370Z,36.40
2019-06-07T14:37:13.719Z,37.30
2019-06-07T14:40:01.941Z,36.10
2019-06-07T14:42:50.323Z,37.00
2019-06-07T14:46:03.451Z,37.50
2019-06-07T14:48:52.216Z,37.90
2019-06-07T14:51:40.392Z,38.00
2019-06-07T14:54:32.145Z,36.80
2019-06-07T14:57:19.363Z,36.90
2019-06-07T15:00:16.685Z,36.60
2019-06-07T15:03:04.739Z,37.80
2019-06-07T15:05:52.919Z,38.30
2019-06-07T15:08:41.179Z,38.10
2019-06-07T15:11:31.040Z,37.90
2019-06-07T15:14:18.895Z,37.50
2019-06-07T15:17:10.058Z,37.60
2019-06-07T15:19:57.964Z,38.00
2019-06-07T15:22:49.211Z,36.50
2019-06-07T15:25:37.158Z,36.00
2019-06-07T15:28:25.276Z,37.00
2019-06-07T15:31:14.661Z,37.30
2019-06-07T15:34:03.061Z,37.50
2019-06-07T15:36:51.742Z,37.60
2019-06-07T15:39:39.577Z,37.60
2019-06-07T15:42:42.710Z,37.50
2019-06-07T15:45:23.133Z,37.40
2019-06-07T15:48:10.856Z,37.30
2019-06-07T15:51:08.837Z,37.90
2019-06-07T15:53:54.199Z,37.10
2019-06-07T15:56:42.045Z,36.90
2019-06-07T15:59:31.007Z,36.10
2019-06-07T16:02:20.101Z,35.50
2019-06-07T16:05:29.414Z,35.50
2019-06-07T16:08:14.892Z,35.30
2019-06-07T16:11:14.857Z,35.00
2019-06-07T16:14:06.282Z,34.50
2019-06-07T16:16:54.991Z,33.40
2019-06-07T16:19:46.352Z,32.40
2019-06-07T16:22:33.529Z,32.40
2019-06-07T16:25:25.991Z,31.90
2019-06-07T16:28:20.150Z,31.40
2019-06-07T16:31:22.288Z,31.10
2019-06-07T16:34:41.817Z,31.00
2019-06-07T16:37:30.396Z,30.80
2019-06-07T16:40:51.431Z,30.10
2019-06-07T16:43:40.560Z,29.30
2019-06-07T16:46:28.676Z,29.00
2019-06-07T16:49:17.075Z,28.80
2019-06-07T16:52:05.184Z,28.40
2019-06-07T16:54:53.381Z,28.30
2019-06-07T16:57:42.917Z,28.20
2019-06-07T17:00:40.390Z,28.10
2019-06-07T17:03:28.538Z,28.00
2019-06-07T17:06:16.588Z,28.00
2019-06-07T17:09:11.039Z,27.90
2019-06-07T17:11:59.199Z,27.50
2019-06-07T17:14:47.266Z,26.30
2019-06-07T17:17:35.627Z,24.80
2019-06-07T17:20:23.777Z,23.20
2019-06-07T17:23:12.972Z,22.80
2019-06-07T17:26:00.895Z,21.70
2019-06-07T17:28:50.098Z,21.30
2019-06-07T17:31:39.898Z,21.40
2019-06-07T17:34:27.737Z,21.30
2019-06-07T17:37:16.027Z,21.50
2019-06-07T17:40:03.823Z,21.60
2019-06-07T17:43:11.084Z,21.80
2019-06-07T17:45:59.025Z,22.40
2019-06-07T17:48:47.566Z,22.80
2019-06-07T17:51:41.687Z,22.90
2019-06-07T17:54:32.883Z,22.10
2019-06-07T17:57:20.732Z,21.50
2019-06-07T18:03:04.875Z,20.60
2019-06-07T18:05:58.316Z,20.10
2019-06-07T18:08:49.597Z,19.50
2019-06-07T18:11:37.489Z,19.10
2019-06-07T18:14:30.008Z,18.80
2019-06-07T18:17:33.485Z,18.60
2019-06-07T18:20:07.541Z,18.20
2019-06-07T18:22:55.724Z,18.10
2019-06-07T18:25:46.315Z,18.00
2019-06-07T18:28:35.985Z,17.90
2019-06-07T18:31:29.620Z,17.80
2019-06-07T18:35:06.502Z,17.70
2019-06-07T18:37:55.161Z,17.70
2019-06-07T18:40:55.343Z,17.50
2019-06-07T18:48:18.718Z,17.50
2019-06-07T18:51:19.703Z,17.30
2019-06-07T18:55:00.826Z,17.30
2019-06-07T19:02:03.238Z,17.20
2019-06-07T19:05:40.953Z,17.10
2019-06-07T19:09:25.093Z,17.10
2019-06-07T19:12:40.975Z,17.10
2019-06-07T19:20:13.942Z,17.00
2019-06-07T19:27:53.051Z,16.90
2019-06-07T19:31:37.356Z,16.80
2019-06-07T19:39:27.858Z,16.70
2019-06-07T19:49:36.850Z,16.60
2019-06-07T19:52:24.758Z,16.60
2019-06-07T19:55:13.072Z,16.60
2019-06-07T19:58:35.884Z,16.50
2019-06-07T20:01:23.564Z,16.50
2019-06-07T20:04:18.030Z,16.50
2019-06-07T20:07:09.142Z,16.50
2019-06-07T20:09:56.664Z,16.40
2019-06-07T20:13:05.011Z,16.30
2019-06-07T20:15:56.926Z,16.30
2019-06-07T20:18:44.567Z,16.20
2019-06-07T20:21:33.343Z,16.30
2019-06-07T20:24:27.017Z,16.20
2019-06-07T20:27:11.768Z,16.20
2019-06-07T20:30:30.640Z,16.20
2019-06-07T20:33:18.718Z,16.20
2019-06-07T20:36:09.089Z,16.20
2019-06-07T20:39:00.145Z,16.20
2019-06-07T20:42:22.352Z,16.20
2019-06-07T20:45:44.697Z,16.20
2019-06-07T20:49:00.385Z,16.30
2019-06-07T20:59:39.294Z,16.30
2019-06-07T21:02:27.371Z,16.20
2019-06-07T21:05:20.399Z,16.20
2019-06-07T21:08:10.680Z,16.10
2019-06-07T21:10:56.358Z,16.10
2019-06-07T21:13:52.831Z,16.00
2019-06-07T21:16:40.967Z,16.00
2019-06-07T21:19:29.161Z,16.10
2019-06-07T21:22:20.733Z,16.10
2019-06-07T21:26:04.988Z,16.10
2019-06-07T21:29:09.414Z,16.10
2019-06-07T21:31:57.685Z,16.00
2019-06-07T21:34:45.493Z,15.90
2019-06-07T21:37:33.516Z,16.00
2019-06-07T21:40:21.484Z,15.90
2019-06-07T21:43:10.555Z,15.80
2019-06-07T21:46:07.071Z,15.80
2019-06-07T21:48:52.498Z,15.80
2019-06-07T21:51:40.556Z,15.60
2019-06-07T21:54:31.951Z,15.60
2019-06-07T21:57:20.044Z,15.70
2019-06-07T22:00:13.551Z,15.60
2019-06-07T22:03:09.385Z,15.60
2019-06-07T22:05:58.766Z,15.30
2019-06-07T22:08:46.528Z,15.00
2019-06-07T22:11:39.056Z,15.00
2019-06-07T22:14:33.021Z,14.90
2019-06-07T22:22:10.994Z,15.00
2019-06-07T22:34:06.775Z,14.90
2019-06-07T22:38:03.904Z,14.90
2019-06-07T22:52:49.674Z,14.70
2019-06-07T23:00:14.181Z,14.70
2019-06-07T23:07:56.244Z,14.60
2019-06-07T23:11:36.073Z,14.50
2019-06-07T23:15:29.859Z,14.50
2019-06-07T23:27:14.337Z,14.50
2019-06-07T23:34:54.768Z,14.30
2019-06-07T23:50:32.255Z,14.70
2019-06-07T23:54:17.840Z,14.70
2019-06-07T23:58:07.550Z,14.60
